Time;durP1;ratioP1;P1;durP2;ratioP2;P2;SDS_P1;SDS_P2;PMS_P1;PMS_P2;Temp;Humidity;BMP_temperature;BMP_pressure;BME280_temperature;BME280_humidity;BME280_pressure;Samples;Min_cycle;Max_cycle;Signal;HPM_P1;HPM_P2
2021/03/31 00:01:30;;;;;;;6.87;5.30;;;9.30;41.80;;;;;;5111442;28;38541;-94
2021/03/31 00:04:12;;;;;;;14.63;5.70;;;9.20;42.10;;;;;;5123442;27;37876;-93
2021/03/31 00:06:56;;;;;;;8.17;4.93;;;9.30;42.50;;;;;;5116124;27;36178;-91
2021/03/31 00:09:31;;;;;;;8.20;4.90;;;9.20;42.10;;;;;;5133539;27;36952;-95
2021/03/31 00:12:06;;;;;;;9.30;5.07;;;9.20;42.10;;;;;;5143861;27;39419;-94
2021/03/31 00:14:34;;;;;;;6.50;4.83;;;9.20;42.00;;;;;;5152043;27;39206;-91
2021/03/31 00:17:02;;;;;;;11.20;6.03;;;9.10;42.20;;;;;;5131090;27;37950;-83
2021/03/31 00:19:29;;;;;;;7.13;4.93;;;9.10;42.20;;;;;;5107566;27;35980;-80
2021/03/31 00:21:56;;;;;;;8.67;5.60;;;9.20;42.70;;;;;;5132028;27;39570;-80
2021/03/31 00:24:23;;;;;;;8.40;6.30;;;9.40;42.40;;;;;;5132022;27;39460;-80
2021/03/31 00:26:50;;;;;;;7.83;5.00;;;9.50;41.90;;;;;;5127795;27;38411;-88
2021/03/31 00:29:18;;;;;;;13.53;5.57;;;9.70;41.20;;;;;;5111600;27;36090;-87
2021/03/31 00:31:45;;;;;;;7.63;5.47;;;9.70;41.00;;;;;;5127702;27;40471;-88
2021/03/31 00:34:12;;;;;;;9.40;5.07;;;9.60;40.80;;;;;;5108735;27;39269;-88
2021/03/31 00:36:40;;;;;;;7.53;5.10;;;9.50;40.80;;;;;;5136572;27;38320;-89
2021/03/31 00:39:08;;;;;;;8.83;5.23;;;9.40;41.00;;;;;;5133950;27;37157;-89
2021/03/31 00:41:36;;;;;;;8.83;6.60;;;9.20;42.10;;;;;;5114906;27;39987;-88
2021/03/31 00:44:03;;;;;;;8.07;5.50;;;9.10;42.10;;;;;;5113035;27;38796;-87
2021/03/31 00:46:32;;;;;;;9.00;5.97;;;9.00;42.60;;;;;;5135578;27;37466;-86
2021/03/31 00:48:59;;;;;;;10.37;5.70;;;8.90;42.60;;;;;;5120359;27;37064;-86
2021/03/31 00:51:26;;;;;;;12.97;6.43;;;8.90;43.30;;;;;;5109863;28;38648;-87
2021/03/31 00:53:54;;;;;;;8.40;5.17;;;8.80;42.60;;;;;;5109664;27;37640;-87
2021/03/31 00:56:21;;;;;;;9.70;5.80;;;8.70;42.70;;;;;;5115053;27;36329;-87
2021/03/31 00:58:48;;;;;;;10.10;5.67;;;8.70;42.80;;;;;;5115796;27;36033;-87
2021/03/31 01:01:16;;;;;;;9.10;5.77;;;8.60;43.10;;;;;;5117828;27;39700;-88
2021/03/31 01:03:44;;;;;;;7.00;5.53;;;8.50;43.50;;;;;;5097898;27;37815;-88
2021/03/31 01:06:13;;;;;;;8.53;5.40;;;8.50;43.80;;;;;;5129164;27;37781;-89
2021/03/31 01:08:40;;;;;;;8.43;6.17;;;8.40;44.30;;;;;;5101883;27;35829;-89
2021/03/31 01:11:08;;;;;;;9.33;5.90;;;8.30;44.30;;;;;;5101441;28;39785;-88
2021/03/31 01:13:48;;;;;;;7.77;6.17;;;8.30;44.40;;;;;;5120342;27;38933;-89
2021/03/31 01:16:33;;;;;;;10.37;6.10;;;8.20;44.30;;;;;;5116195;27;36455;-88
2021/03/31 01:19:16;;;;;;;9.53;5.97;;;8.20;44.70;;;;;;5117213;27;36267;-88
2021/03/31 01:22:13;;;;;;;7.03;5.53;;;8.10;44.80;;;;;;5112527;27;38813;-87
2021/03/31 01:25:02;;;;;;;9.03;6.00;;;8.10;45.00;;;;;;5131063;27;40358;-88
2021/03/31 01:27:41;;;;;;;8.80;5.70;;;8.10;44.70;;;;;;5124546;27;37741;-88
2021/03/31 01:30:19;;;;;;;8.77;6.07;;;8.00;44.60;;;;;;5135346;27;36967;-88
2021/03/31 01:33:25;;;;;;;9.97;4.93;;;8.00;44.60;;;;;;5128594;27;40610;-86
2021/03/31 01:35:54;;;;;;;9.60;5.63;;;8.00;44.60;;;;;;5048588;28;39518;-88
2021/03/31 01:38:25;;;;;;;8.80;5.70;;;7.90;44.70;;;;;;5105399;28;36164;-88
2021/03/31 01:40:54;;;;;;;8.43;5.40;;;7.90;44.70;;;;;;5116477;27;36230;-89
2021/03/31 01:43:23;;;;;;;8.77;6.40;;;7.90;45.00;;;;;;5114406;27;39503;-89
2021/03/31 01:45:54;;;;;;;8.20;5.90;;;7.80;45.20;;;;;;5135025;27;39087;-88
2021/03/31 01:48:25;;;;;;;13.23;6.10;;;7.80;45.40;;;;;;5145432;27;38773;-87
2021/03/31 01:50:57;;;;;;;12.93;7.07;;;7.70;45.60;;;;;;5150574;27;38277;-88
2021/03/31 01:53:25;;;;;;;8.63;6.50;;;7.60;45.70;;;;;;5159171;27;41166;-88
2021/03/31 01:55:53;;;;;;;11.30;7.00;;;7.60;45.80;;;;;;5141424;27;38760;-88
2021/03/31 01:58:21;;;;;;;8.20;6.13;;;7.60;46.00;;;;;;5133785;27;36513;-86
2021/03/31 02:00:50;;;;;;;8.53;6.57;;;7.50;45.80;;;;;;5139584;27;38424;-87
2021/03/31 02:03:19;;;;;;;11.90;6.97;;;7.50;45.90;;;;;;5121818;28;39286;-88
2021/03/31 02:05:47;;;;;;;9.13;6.80;;;7.40;46.10;;;;;;5153793;27;39567;-89
2021/03/31 02:08:17;;;;;;;9.73;6.37;;;7.40;46.30;;;;;;5139676;27;37829;-88
2021/03/31 02:10:45;;;;;;;15.00;7.17;;;7.30;46.50;;;;;;5105744;27;36868;-87
2021/03/31 02:13:12;;;;;;;8.33;6.00;;;7.30;46.70;;;;;;5128849;27;40383;-87
2021/03/31 02:15:42;;;;;;;8.83;6.67;;;7.30;46.70;;;;;;5111636;27;38264;-89
2021/03/31 02:18:15;;;;;;;10.40;7.30;;;7.30;46.80;;;;;;5113182;27;37142;-87
2021/03/31 02:20:42;;;;;;;10.23;6.60;;;7.30;46.80;;;;;;5115250;27;37235;-88
2021/03/31 02:23:09;;;;;;;10.50;7.00;;;7.20;46.60;;;;;;5105875;28;38396;-88
2021/03/31 02:25:37;;;;;;;10.50;7.13;;;7.30;46.90;;;;;;5099249;27;38814;-88
2021/03/31 02:28:09;;;;;;;12.13;7.97;;;7.20;46.80;;;;;;5098982;27;37429;-87
2021/03/31 02:30:36;;;;;;;15.20;7.60;;;7.20;46.90;;;;;;5133164;27;37684;-88
2021/03/31 02:33:06;;;;;;;18.47;8.10;;;7.10;46.80;;;;;;5123797;27;38248;-86
2021/03/31 02:35:34;;;;;;;11.70;7.67;;;7.10;46.90;;;;;;5127582;27;41471;-86
2021/03/31 02:38:06;;;;;;;11.37;7.17;;;7.10;47.10;;;;;;5135982;27;38451;-86
2021/03/31 02:40:34;;;;;;;12.40;6.60;;;7.00;47.00;;;;;;5132579;27;36745;-87
2021/03/31 02:43:04;;;;;;;14.67;7.53;;;7.00;47.20;;;;;;5150126;27;40681;-85
2021/03/31 02:45:31;;;;;;;12.80;7.20;;;7.00;47.10;;;;;;5135225;27;39196;-87
2021/03/31 02:48:01;;;;;;;11.50;6.23;;;7.00;47.20;;;;;;5121532;27;37861;-88
2021/03/31 02:50:30;;;;;;;10.27;6.90;;;7.10;47.00;;;;;;5124824;27;37272;-88
2021/03/31 02:52:59;;;;;;;11.13;7.70;;;7.10;46.90;;;;;;5115229;27;38793;-85
2021/03/31 02:55:27;;;;;;;12.17;6.83;;;7.10;46.90;;;;;;5142393;27;39886;-87
2021/03/31 02:57:56;;;;;;;10.50;7.20;;;7.00;47.20;;;;;;5131822;27;37663;-88
2021/03/31 03:00:25;;;;;;;13.00;7.90;;;7.00;47.20;;;;;;5144821;27;38606;-86
2021/03/31 03:02:53;;;;;;;11.83;7.77;;;7.00;47.00;;;;;;5133153;28;38547;-84
2021/03/31 03:05:22;;;;;;;10.40;6.47;;;7.00;46.90;;;;;;5131362;27;38628;-87
2021/03/31 03:07:50;;;;;;;11.93;7.37;;;6.90;46.90;;;;;;5137836;27;37536;-87
2021/03/31 03:10:17;;;;;;;11.40;7.10;;;6.90;47.30;;;;;;5147520;27;38114;-87
2021/03/31 03:12:48;;;;;;;9.60;7.10;;;6.80;47.30;;;;;;5119791;27;38111;-87
2021/03/31 03:15:17;;;;;;;12.47;6.87;;;6.70;47.30;;;;;;5125462;27;40044;-88
2021/03/31 03:17:45;;;;;;;8.93;6.50;;;6.70;47.40;;;;;;5101845;27;36634;-86
2021/03/31 03:20:14;;;;;;;11.77;7.00;;;6.70;47.60;;;;;;5080620;28;37002;-87
2021/03/31 03:22:44;;;;;;;8.57;6.47;;;6.70;47.60;;;;;;5113774;28;39830;-87
2021/03/31 03:25:12;;;;;;;8.63;6.43;;;6.70;47.50;;;;;;5099801;28;37600;-87
2021/03/31 03:27:42;;;;;;;14.60;7.00;;;6.80;48.10;;;;;;5122622;28;38062;-86
2021/03/31 03:30:12;;;;;;;11.50;6.70;;;6.80;47.30;;;;;;5128831;28;38700;-87
2021/03/31 03:32:40;;;;;;;11.83;7.20;;;6.80;47.30;;;;;;5119202;28;38252;-87
2021/03/31 03:35:10;;;;;;;12.63;6.67;;;6.70;47.30;;;;;;5135868;28;40267;-87
2021/03/31 03:37:42;;;;;;;11.90;7.47;;;6.70;47.30;;;;;;5124987;27;38972;-88
2021/03/31 03:40:13;;;;;;;9.60;6.50;;;6.70;47.60;;;;;;5136270;27;38500;-89
2021/03/31 03:42:41;;;;;;;13.43;7.03;;;6.60;47.60;;;;;;5121462;28;40919;-87
2021/03/31 03:45:09;;;;;;;10.50;6.93;;;6.60;48.10;;;;;;5118320;28;38784;-87
2021/03/31 03:47:38;;;;;;;9.70;6.80;;;6.50;48.20;;;;;;5101562;28;37872;-87
2021/03/31 03:50:10;;;;;;;9.57;5.53;;;6.50;48.80;;;;;;5105039;28;36775;-87
2021/03/31 03:52:38;;;;;;;10.93;6.43;;;6.50;48.10;;;;;;5101334;28;39257;-88
2021/03/31 03:55:07;;;;;;;13.20;6.90;;;6.50;48.00;;;;;;5112963;28;37194;-88
2021/03/31 03:57:34;;;;;;;11.10;6.10;;;6.40;48.00;;;;;;5117837;28;37891;-88
2021/03/31 04:00:10;;;;;;;16.83;7.80;;;6.50;48.10;;;;;;5092301;28;35978;-88
2021/03/31 04:02:39;;;;;;;12.13;7.23;;;6.50;48.30;;;;;;5106447;28;40181;-87
2021/03/31 04:05:07;;;;;;;11.87;6.80;;;6.40;48.40;;;;;;5105506;28;37926;-87
2021/03/31 04:07:35;;;;;;;10.00;6.53;;;6.40;48.40;;;;;;5104131;28;36192;-87
2021/03/31 04:10:04;;;;;;;10.67;6.70;;;6.40;48.20;;;;;;5100925;28;37483;-87
2021/03/31 04:12:34;;;;;;;15.90;7.40;;;6.30;48.40;;;;;;5116240;28;39725;-87
2021/03/31 04:15:02;;;;;;;13.50;8.43;;;6.30;48.90;;;;;;5089532;28;37552;-87
2021/03/31 04:17:30;;;;;;;21.67;7.70;;;6.20;48.90;;;;;;5080630;28;36777;-87
2021/03/31 04:20:00;;;;;;;8.53;6.27;;;6.20;49.10;;;;;;5114342;28;38380;-87
2021/03/31 04:22:27;;;;;;;10.23;6.37;;;6.20;49.00;;;;;;5116013;28;39825;-86
2021/03/31 04:24:56;;;;;;;13.90;6.50;;;6.20;49.00;;;;;;5108254;28;38865;-86
2021/03/31 04:27:24;;;;;;;13.00;6.50;;;6.20;48.80;;;;;;5093059;28;36435;-88
2021/03/31 04:29:52;;;;;;;12.20;6.40;;;6.20;49.10;;;;;;5099124;28;36000;-86
2021/03/31 04:32:20;;;;;;;11.20;5.60;;;6.10;49.20;;;;;;5095509;28;38576;-87
2021/03/31 04:34:47;;;;;;;8.27;6.70;;;6.10;49.20;;;;;;5084221;28;38187;-87
2021/03/31 04:37:15;;;;;;;10.13;5.63;;;6.10;49.10;;;;;;5120572;28;38968;-87
2021/03/31 04:39:42;;;;;;;16.07;7.20;;;6.00;49.10;;;;;;5101497;28;35963;-88
2021/03/31 04:42:11;;;;;;;13.90;7.43;;;6.00;49.30;;;;;;5099602;28;39367;-87
2021/03/31 04:44:38;;;;;;;11.93;7.57;;;6.00;49.50;;;;;;5113748;28;38729;-87
2021/03/31 04:47:05;;;;;;;14.63;8.40;;;5.90;49.20;;;;;;5119756;28;38036;-86
2021/03/31 04:49:33;;;;;;;19.13;8.27;;;5.90;49.30;;;;;;5107235;28;37376;-88
2021/03/31 04:52:03;;;;;;;16.70;8.83;;;6.00;49.30;;;;;;5116888;28;40158;-87
2021/03/31 04:54:31;;;;;;;13.97;8.57;;;5.80;49.30;;;;;;5117286;28;38653;-87
2021/03/31 04:57:06;;;;;;;18.43;7.77;;;5.80;49.40;;;;;;5113805;28;36052;-87
2021/03/31 04:59:40;;;;;;;14.37;8.53;;;5.70;49.50;;;;;;5133683;27;38470;-86
2021/03/31 05:02:07;;;;;;;22.90;8.17;;;5.70;49.70;;;;;;5120377;28;40154;-84
2021/03/31 05:04:35;;;;;;;13.17;8.10;;;5.60;49.90;;;;;;5091310;28;37777;-86
2021/03/31 05:07:02;;;;;;;17.13;8.80;;;5.60;50.00;;;;;;5110878;28;36708;-85
2021/03/31 05:09:30;;;;;;;15.30;8.40;;;5.70;50.00;;;;;;5096965;28;35891;-86
2021/03/31 05:11:57;;;;;;;15.30;8.60;;;5.70;50.00;;;;;;5096111;28;38310;-86
2021/03/31 05:14:25;;;;;;;12.53;7.50;;;5.70;50.00;;;;;;5106107;28;38012;-87
2021/03/31 05:16:53;;;;;;;14.50;7.40;;;5.80;50.00;;;;;;5096857;28;37656;-86
2021/03/31 05:19:20;;;;;;;12.43;7.80;;;5.90;50.10;;;;;;5099051;28;35801;-88
2021/03/31 05:21:47;;;;;;;11.10;7.00;;;6.00;50.00;;;;;;5098252;28;40938;-88
2021/03/31 05:24:14;;;;;;;13.40;7.50;;;6.10;49.60;;;;;;5094591;28;38104;-88
2021/03/31 05:26:42;;;;;;;15.83;7.10;;;6.30;49.90;;;;;;5101761;28;37562;-88
2021/03/31 05:29:10;;;;;;;12.53;7.23;;;6.60;49.30;;;;;;5114911;28;36746;-88
2021/03/31 05:31:37;;;;;;;12.80;7.70;;;6.90;48.80;;;;;;5090866;28;38153;-87
2021/03/31 05:34:05;;;;;;;15.10;8.03;;;7.30;47.80;;;;;;5090736;28;37880;-88
2021/03/31 05:36:34;;;;;;;10.60;7.60;;;7.60;47.20;;;;;;5092309;28;36942;-89
2021/03/31 05:39:01;;;;;;;15.03;7.90;;;7.70;46.30;;;;;;5105858;28;35884;-90
2021/03/31 05:41:31;;;;;;;10.77;7.40;;;7.80;45.70;;;;;;5125875;28;40660;-88
2021/03/31 05:44:00;;;;;;;13.70;7.60;;;7.80;45.50;;;;;;5099248;28;39241;-89
2021/03/31 05:46:28;;;;;;;11.97;7.47;;;7.70;45.60;;;;;;5099614;28;38126;-91
2021/03/31 05:48:55;;;;;;;10.67;7.60;;;7.90;45.50;;;;;;5107227;28;36843;-87
2021/03/31 05:51:23;;;;;;;15.57;7.70;;;8.00;45.30;;;;;;5096720;28;39649;-87
2021/03/31 05:53:51;;;;;;;13.20;8.13;;;8.00;44.90;;;;;;5091354;28;37832;-86
2021/03/31 05:56:18;;;;;;;12.00;7.30;;;8.10;45.20;;;;;;5106557;28;37510;-86
2021/03/31 05:58:46;;;;;;;12.03;6.90;;;8.80;45.10;;;;;;5113887;28;36969;-87
2021/03/31 06:01:13;;;;;;;12.10;7.13;;;9.80;43.70;;;;;;5116747;27;40393;-87
2021/03/31 06:03:44;;;;;;;14.37;8.10;;;10.50;40.70;;;;;;5116018;28;39145;-87
2021/03/31 06:06:11;;;;;;;15.70;7.93;;;11.00;39.30;;;;;;5115968;28;37621;-88
2021/03/31 06:08:39;;;;;;;15.40;7.30;;;11.60;38.40;;;;;;5097033;28;36135;-87
2021/03/31 06:11:06;;;;;;;30.90;10.97;;;12.60;37.50;;;;;;5098131;28;39523;-88
2021/03/31 06:13:49;;;;;;;20.60;11.40;;;14.10;34.60;;;;;;5115308;28;39327;-87
2021/03/31 06:16:30;;;;;;;21.87;14.30;;;15.90;32.50;;;;;;5117189;28;37964;-87
2021/03/31 06:18:57;;;;;;;25.60;14.57;;;17.10;29.10;;;;;;5091775;28;36212;-87
2021/03/31 06:21:25;;;;;;;26.23;15.03;;;17.30;28.40;;;;;;5095348;28;40360;-89
2021/03/31 06:23:57;;;;;;;22.57;14.33;;;17.20;28.70;;;;;;5075940;28;38537;-87
2021/03/31 06:26:26;;;;;;;18.97;11.67;;;17.40;28.70;;;;;;5085457;28;37697;-87
2021/03/31 06:28:56;;;;;;;15.43;10.50;;;17.40;28.20;;;;;;5074533;28;36201;-88
2021/03/31 06:31:28;;;;;;;20.10;10.57;;;17.20;28.10;;;;;;5087329;28;39658;-87
2021/03/31 06:34:04;;;;;;;14.83;8.80;;;16.80;28.40;;;;;;5092927;28;39101;-87
2021/03/31 06:36:37;;;;;;;14.40;9.17;;;16.30;28.80;;;;;;5075508;28;36536;-87
2021/03/31 06:39:24;;;;;;;12.40;8.60;;;16.00;29.50;;;;;;5094359;28;38257;-88
2021/03/31 06:41:57;;;;;;;16.97;9.33;;;16.00;29.40;;;;;;5093907;28;39761;-88
2021/03/31 06:44:40;;;;;;;14.87;9.00;;;16.60;29.10;;;;;;5074096;28;38930;-87
2021/03/31 06:47:12;;;;;;;16.33;8.60;;;17.30;28.30;;;;;;5081636;28;37670;-88
2021/03/31 06:49:39;;;;;;;12.10;8.47;;;18.20;27.60;;;;;;5075332;28;36194;-88
2021/03/31 06:52:09;;;;;;;11.10;8.33;;;19.00;26.60;;;;;;5094829;28;40231;-87
2021/03/31 06:54:44;;;;;;;12.20;8.33;;;19.60;26.10;;;;;;5076293;28;39200;-89
2021/03/31 06:57:13;;;;;;;16.83;8.60;;;19.90;25.70;;;;;;5090949;28;37671;-88
2021/03/31 06:59:42;;;;;;;26.73;10.20;;;19.70;25.60;;;;;;5087694;28;37789;-88
2021/03/31 07:02:10;;;;;;;19.40;8.30;;;19.80;26.20;;;;;;5097630;28;39562;-87
2021/03/31 07:04:37;;;;;;;19.03;8.60;;;20.20;25.90;;;;;;5116889;28;40277;-87
2021/03/31 07:07:07;;;;;;;16.50;9.83;;;20.70;25.30;;;;;;5096636;28;37456;-87
2021/03/31 07:09:35;;;;;;;16.37;9.30;;;21.40;24.90;;;;;;5098900;28;36826;-87
2021/03/31 07:12:17;;;;;;;16.63;8.30;;;22.20;24.30;;;;;;5116312;27;40703;-87
2021/03/31 07:14:45;;;;;;;12.43;7.80;;;23.20;23.50;;;;;;5098673;28;38349;-89
2021/03/31 07:17:21;;;;;;;11.13;8.17;;;24.00;23.20;;;;;;5116314;28;38939;-88
2021/03/31 07:19:49;;;;;;;12.43;8.33;;;25.10;22.30;;;;;;5091750;28;37121;-89
2021/03/31 07:22:17;;;;;;;13.63;7.40;;;26.00;21.40;;;;;;5087967;28;40950;-88
2021/03/31 07:24:44;;;;;;;13.57;8.60;;;26.90;20.10;;;;;;5079236;28;39257;-90
2021/03/31 07:27:14;;;;;;;13.43;7.67;;;27.70;19.40;;;;;;5059442;28;38204;-88
2021/03/31 07:30:05;;;;;;;14.10;8.73;;;28.70;18.90;;;;;;5078900;28;38217;-84
2021/03/31 07:32:37;;;;;;;15.73;8.53;;;29.40;18.40;;;;;;5072456;28;39739;-85
2021/03/31 07:35:08;;;;;;;15.93;7.87;;;30.10;17.50;;;;;;5055408;28;37974;-85
2021/03/31 07:37:36;;;;;;;14.77;8.60;;;31.00;17.40;;;;;;5075332;28;37770;-85
2021/03/31 07:40:06;;;;;;;14.43;8.70;;;32.00;16.40;;;;;;5075803;28;35555;-83
2021/03/31 07:42:36;;;;;;;14.80;7.80;;;33.60;15.50;;;;;;5063121;28;38303;-84
2021/03/31 07:45:09;;;;;;;12.03;8.03;;;34.90;14.60;;;;;;5073973;28;40170;-85
2021/03/31 07:47:40;;;;;;;9.73;8.13;;;36.00;13.70;;;;;;5058213;28;36325;-82
2021/03/31 07:50:09;;;;;;;19.73;8.13;;;36.50;12.80;;;;;;5056329;28;37519;-81
2021/03/31 07:52:57;;;;;;;11.80;7.90;;;36.20;13.00;;;;;;5074458;28;39846;-82
2021/03/31 07:55:36;;;;;;;11.10;8.23;;;36.90;12.20;;;;;;5074275;28;39381;-82
2021/03/31 07:58:31;;;;;;;11.50;9.17;;;36.70;12.30;;;;;;5060493;28;37474;-92
2021/03/31 08:01:09;;;;;;;15.43;8.67;;;36.30;12.00;;;;;;5082539;28;38942;-92
2021/03/31 08:03:39;;;;;;;15.20;8.30;;;35.50;12.20;;;;;;5081558;28;40050;-91
2021/03/31 08:06:15;;;;;;;10.10;8.00;;;34.80;12.20;;;;;;5063811;28;37599;-92
2021/03/31 08:08:57;;;;;;;17.23;8.60;;;34.20;12.70;;;;;;5064211;28;36261;-93
2021/03/31 08:11:46;;;;;;;11.90;8.70;;;34.10;12.50;;;;;;5067012;28;35872;-91
2021/03/31 08:14:16;;;;;;;10.67;8.30;;;34.00;12.20;;;;;;5062684;28;38720;-94
2021/03/31 08:16:48;;;;;;;10.67;8.00;;;33.30;12.90;;;;;;5062882;28;39657;-92
2021/03/31 08:19:17;;;;;;;15.60;7.60;;;33.50;12.50;;;;;;5082444;28;36779;-92
2021/03/31 08:21:47;;;;;;;12.97;9.30;;;33.80;12.10;;;;;;5110163;28;38726;-96
2021/03/31 08:24:15;;;;;;;22.30;9.60;;;34.30;11.90;;;;;;5093604;28;40311;-96
2021/03/31 08:29:53;;;;;;;12.87;8.97;;;34.90;11.60;;;;;;5100450;28;40714;-92
2021/03/31 08:32:22;;;;;;;11.63;8.37;;;35.60;11.40;;;;;;5097379;28;35921;-94
2021/03/31 08:34:50;;;;;;;11.20;8.63;;;35.80;11.10;;;;;;5098882;28;39995;-95
2021/03/31 08:37:26;;;;;;;12.73;9.40;;;36.30;11.00;;;;;;5098689;28;37708;-93
2021/03/31 08:39:58;;;;;;;10.70;8.90;;;37.10;10.70;;;;;;5094916;28;37593;-93
2021/03/31 08:42:26;;;;;;;13.80;9.20;;;38.00;10.10;;;;;;5094865;28;35919;-94
2021/03/31 08:44:57;;;;;;;9.73;8.53;;;38.50;10.10;;;;;;5090501;28;40002;-94
2021/03/31 08:47:26;;;;;;;14.00;9.37;;;39.00;9.40;;;;;;5097582;28;37763;-92
2021/03/31 08:49:59;;;;;;;10.47;8.67;;;39.10;9.00;;;;;;5100716;28;37703;-91
2021/03/31 08:52:33;;;;;;;11.53;8.63;;;39.10;9.40;;;;;;5112227;28;37673;-91
2021/03/31 08:55:03;;;;;;;10.60;8.70;;;38.90;9.00;;;;;;5108567;28;38396;-96
2021/03/31 08:57:31;;;;;;;11.70;9.43;;;38.90;9.00;;;;;;5108565;28;37954;-95
2021/03/31 09:00:01;;;;;;;10.17;8.10;;;38.70;8.90;;;;;;5112269;27;36699;-90
2021/03/31 09:02:31;;;;;;;10.57;8.70;;;38.70;9.60;;;;;;5110986;28;36072;-91
2021/03/31 09:05:01;;;;;;;13.53;8.97;;;38.60;8.80;;;;;;5109961;28;39313;-92
2021/03/31 09:07:29;;;;;;;12.00;9.60;;;39.00;9.10;;;;;;5112441;28;38850;-91
2021/03/31 09:09:57;;;;;;;11.93;8.40;;;39.30;9.10;;;;;;5118226;28;37606;-92
2021/03/31 09:12:25;;;;;;;15.70;10.27;;;39.90;8.70;;;;;;5135814;28;38659;-92
2021/03/31 09:14:54;;;;;;;11.30;8.90;;;40.30;8.30;;;;;;5137451;27;39614;-91
2021/03/31 09:17:23;;;;;;;12.60;9.90;;;40.50;8.20;;;;;;5115099;28;38595;-90
2021/03/31 09:19:52;;;;;;;16.90;9.37;;;40.40;8.10;;;;;;5112854;28;37567;-93
2021/03/31 09:22:22;;;;;;;12.20;9.50;;;40.60;8.50;;;;;;5132510;27;38227;-92
2021/03/31 09:24:51;;;;;;;12.60;8.73;;;40.70;8.00;;;;;;5133251;27;41226;-91
2021/03/31 09:27:20;;;;;;;11.17;8.63;;;40.90;8.00;;;;;;5136366;27;40149;-92
2021/03/31 09:29:48;;;;;;;13.30;10.60;;;40.90;7.70;;;;;;5117545;27;36999;-91
2021/03/31 09:32:18;;;;;;;12.97;9.23;;;41.30;7.80;;;;;;5120685;28;37121;-92
2021/03/31 09:34:46;;;;;;;14.93;10.00;;;41.80;7.80;;;;;;5117827;27;38723;-94
2021/03/31 09:37:16;;;;;;;10.90;9.23;;;42.00;7.70;;;;;;5103000;27;38809;-95
2021/03/31 09:39:46;;;;;;;9.93;8.53;;;42.40;7.90;;;;;;5112743;28;37688;-95
2021/03/31 09:42:21;;;;;;;14.40;8.67;;;42.50;7.50;;;;;;5111090;28;36719;-94
2021/03/31 09:44:50;;;;;;;23.63;9.57;;;42.50;7.10;;;;;;5119680;28;39414;-92
2021/03/31 09:47:19;;;;;;;10.10;8.60;;;42.30;7.30;;;;;;5105664;28;38713;-94
2021/03/31 09:49:50;;;;;;;12.23;9.13;;;41.90;7.70;;;;;;5117921;28;38917;-92
2021/03/31 09:52:31;;;;;;;10.90;8.50;;;42.20;7.80;;;;;;5125689;28;37459;-91
2021/03/31 09:55:01;;;;;;;20.13;9.47;;;42.40;7.10;;;;;;5108992;28;39495;-93
2021/03/31 09:57:29;;;;;;;15.97;9.03;;;42.60;7.30;;;;;;5106289;28;38802;-95
2021/03/31 10:00:02;;;;;;;18.80;9.80;;;42.60;6.90;;;;;;5098656;28;37507;-91
2021/03/31 10:02:41;;;;;;;9.70;8.47;;;42.40;7.10;;;;;;5117145;28;37851;-91
2021/03/31 10:05:14;;;;;;;26.23;10.10;;;41.80;7.40;;;;;;5113428;28;38306;-92
2021/03/31 10:08:01;;;;;;;17.10;10.37;;;41.70;7.20;;;;;;5116886;28;38398;-91
2021/03/31 10:10:59;;;;;;;15.40;8.40;;;41.60;7.40;;;;;;5111895;28;37739;-91
2021/03/31 10:13:37;;;;;;;20.83;9.43;;;41.60;7.30;;;;;;5120798;28;38515;-91
2021/03/31 10:16:11;;;;;;;15.77;9.07;;;41.50;7.00;;;;;;5118426;27;37928;-89
2021/03/31 10:18:41;;;;;;;14.00;8.30;;;41.60;7.50;;;;;;5117933;27;38178;-92
2021/03/31 10:21:09;;;;;;;17.50;9.60;;;41.80;7.30;;;;;;5114492;28;37617;-90
2021/03/31 10:23:38;;;;;;;14.57;9.33;;;41.80;6.90;;;;;;5125027;27;38571;-89
2021/03/31 10:26:20;;;;;;;14.87;8.90;;;41.80;7.20;;;;;;5132180;28;41093;-90
2021/03/31 10:28:48;;;;;;;21.67;10.47;;;42.00;6.90;;;;;;5093978;28;38844;-90
2021/03/31 10:31:23;;;;;;;11.43;9.00;;;41.70;7.00;;;;;;5128712;28;37854;-91
2021/03/31 10:33:50;;;;;;;13.67;8.83;;;41.90;6.90;;;;;;5120052;28;37549;-90
2021/03/31 10:36:43;;;;;;;16.37;9.63;;;41.80;7.00;;;;;;5123623;27;38501;-89
2021/03/31 10:39:58;;;;;;;18.23;8.97;;;42.10;6.90;;;;;;5118759;28;39341;-89
2021/03/31 10:48:38;;;;;;;9.80;8.17;;;41.20;6.80;;;;;;5118945;27;39871;-89
2021/03/31 10:51:20;;;;;;;16.57;8.43;;;41.10;7.00;;;;;;5113144;27;38726;-89
2021/03/31 10:53:54;;;;;;;12.03;8.20;;;40.70;7.00;;;;;;5112221;28;37199;-88
2021/03/31 10:56:23;;;;;;;8.70;7.80;;;39.90;6.90;;;;;;5123693;28;37641;-87
2021/03/31 10:58:50;;;;;;;8.90;7.90;;;39.50;7.40;;;;;;5106648;28;39569;-89
2021/03/31 11:01:17;;;;;;;14.83;8.50;;;38.90;7.20;;;;;;5103373;28;37905;-90
2021/03/31 11:03:45;;;;;;;14.93;8.30;;;38.30;7.50;;;;;;5115461;28;37805;-90
2021/03/31 11:06:14;;;;;;;8.30;7.40;;;37.80;7.70;;;;;;5113657;28;36520;-91
2021/03/31 11:08:41;;;;;;;10.60;7.83;;;37.30;8.10;;;;;;5118093;27;38037;-90
2021/03/31 11:11:10;;;;;;;15.27;8.00;;;36.50;8.50;;;;;;5117970;28;38262;-91
2021/03/31 11:13:41;;;;;;;15.20;8.10;;;36.40;8.80;;;;;;5108378;27;37207;-90
2021/03/31 11:16:10;;;;;;;12.07;7.87;;;35.70;8.50;;;;;;5108296;28;41861;-91
2021/03/31 11:18:48;;;;;;;10.23;7.67;;;35.30;8.60;;;;;;5115617;28;39557;-92
2021/03/31 11:26:49;;;;;;;8.70;6.57;;;33.20;10.20;;;;;;5045020;28;37614;-92
2021/03/31 11:29:17;;;;;;;8.90;5.87;;;32.50;9.80;;;;;;5118306;28;39623;-92
2021/03/31 11:31:44;;;;;;;5.77;5.03;;;31.90;10.20;;;;;;5110377;28;38231;-91
2021/03/31 11:34:12;;;;;;;8.53;6.23;;;31.00;10.90;;;;;;5103626;28;37906;-92
2021/03/31 11:36:39;;;;;;;9.43;5.87;;;30.50;10.30;;;;;;5104254;28;35664;-92
2021/03/31 11:39:07;;;;;;;7.70;5.40;;;29.90;10.30;;;;;;5110762;28;39890;-93
2021/03/31 11:41:35;;;;;;;8.60;5.33;;;29.10;10.60;;;;;;5089645;28;38121;-91
2021/03/31 11:44:03;;;;;;;7.23;6.17;;;28.50;10.60;;;;;;5090610;28;36751;-93
2021/03/31 11:46:31;;;;;;;11.77;5.30;;;28.20;11.10;;;;;;5090122;28;36713;-88
2021/03/31 11:48:59;;;;;;;6.27;4.70;;;28.10;11.70;;;;;;5093738;28;39591;-90
2021/03/31 11:51:26;;;;;;;12.73;5.97;;;28.00;12.20;;;;;;5095272;28;37447;-88
2021/03/31 11:53:53;;;;;;;9.33;5.03;;;27.50;11.90;;;;;;5096008;28;37621;-87
2021/03/31 11:56:21;;;;;;;27.87;6.30;;;27.10;12.50;;;;;;5115819;28;36891;-91
2021/03/31 11:58:48;;;;;;;7.13;4.63;;;26.70;12.60;;;;;;5093378;28;40222;-89
2021/03/31 12:01:16;;;;;;;42.33;8.50;;;26.50;13.30;;;;;;5116955;27;39770;-90
2021/03/31 12:03:43;;;;;;;11.50;5.27;;;26.10;12.50;;;;;;5118158;28;37831;-91
2021/03/31 12:06:10;;;;;;;7.60;4.80;;;25.80;12.70;;;;;;5101749;28;36141;-89
2021/03/31 12:08:45;;;;;;;11.07;4.90;;;25.50;12.80;;;;;;5110001;28;38916;-93
2021/03/31 12:11:13;;;;;;;6.20;4.30;;;25.10;12.80;;;;;;5109484;28;40390;-92
2021/03/31 12:13:40;;;;;;;5.63;4.00;;;24.90;13.00;;;;;;5122687;28;37960;-91
2021/03/31 12:16:09;;;;;;;7.00;4.13;;;24.70;13.00;;;;;;5085231;28;36450;-89
2021/03/31 12:18:37;;;;;;;8.20;4.00;;;24.60;13.70;;;;;;5095259;28;39303;-89
2021/03/31 12:21:05;;;;;;;34.20;6.03;;;24.50;13.60;;;;;;5107280;28;37613;-92
2021/03/31 12:23:34;;;;;;;6.10;3.83;;;24.60;14.00;;;;;;5113570;28;38439;-90
2021/03/31 12:26:04;;;;;;;8.63;3.53;;;24.60;13.40;;;;;;5105456;28;36230;-93
2021/03/31 12:28:34;;;;;;;5.70;3.43;;;24.60;13.60;;;;;;5094753;28;39441;-94
2021/03/31 12:31:07;;;;;;;8.00;3.53;;;24.60;12.80;;;;;;5103992;28;38013;-90
2021/03/31 12:33:36;;;;;;;7.90;5.10;;;24.60;12.70;;;;;;5110081;28;37766;-90
2021/03/31 12:36:04;;;;;;;6.00;2.93;;;24.60;12.40;;;;;;5125825;27;37368;-92
2021/03/31 12:38:31;;;;;;;4.40;3.27;;;24.60;12.40;;;;;;5100808;28;40115;-95
2021/03/31 12:40:59;;;;;;;5.30;3.37;;;24.60;11.60;;;;;;5116958;28;39110;-94
2021/03/31 12:43:26;;;;;;;11.97;4.47;;;24.50;12.40;;;;;;5099342;28;36285;-94
2021/03/31 12:45:54;;;;;;;13.07;4.70;;;24.60;12.70;;;;;;5094289;28;38999;-91
2021/03/31 12:48:21;;;;;;;9.87;4.00;;;24.60;13.50;;;;;;5098766;28;39073;-91
2021/03/31 12:50:53;;;;;;;4.53;3.60;;;24.50;12.30;;;;;;5109008;28;40262;-90
2021/03/31 12:53:21;;;;;;;11.17;4.10;;;24.50;12.20;;;;;;5122425;28;38000;-90
2021/03/31 12:55:50;;;;;;;7.23;3.40;;;24.50;13.10;;;;;;5103437;28;37222;-91
2021/03/31 12:58:20;;;;;;;11.20;4.97;;;24.50;12.30;;;;;;5117961;28;40193;-94
2021/03/31 13:00:52;;;;;;;8.90;3.97;;;24.50;12.00;;;;;;5113878;28;39966;-94
2021/03/31 13:03:20;;;;;;;13.23;4.20;;;24.50;12.00;;;;;;5103267;28;36544;-88
2021/03/31 13:05:47;;;;;;;6.47;3.37;;;24.40;12.70;;;;;;5099250;28;36839;-94
2021/03/31 13:08:16;;;;;;;13.80;3.47;;;24.50;12.50;;;;;;5110478;28;38196;-94
2021/03/31 13:10:45;;;;;;;6.23;3.57;;;24.40;11.10;;;;;;5099948;28;37626;-94
2021/03/31 13:13:17;;;;;;;6.53;3.40;;;24.40;11.00;;;;;;5106126;28;37564;-88
2021/03/31 13:15:45;;;;;;;10.97;3.33;;;24.30;10.60;;;;;;5117333;28;36386;-88
2021/03/31 13:26:26;;;;;;;5.90;3.10;;;24.30;9.70;;;;;;5116860;28;36813;-88